DLH127 EDDF-EGKK
Flight info
| Callsign | DLH127 |
|---|---|
| Flight time | 1h 10m |
| Altitude | 34000 |
| Route | SOBRA2L/18 SOBRA Y180 BITBU Y181 DEMUL M624 BUB L608 DENUT L610 TEBRA |
| Aircraft | A339/H-SADE1E2E3GHIJ3J5M1P2RWXY/LB2D1 |
Departure
| Time | 2026-05-04 14:17 |
|---|---|
| Airport | Frankfurt Main Airport (EDDF) |
Arrival
| Time | 2026-05-04 15:27 |
|---|---|
| Airport | London Gatwick Airport (EGKK) |
| Time | Latitude | Longitude | Altitude | Speed | Heading |
|---|---|---|---|---|---|
| 2026-05-04 13:57 | 50.04706 | 8.56155 | 369 ft | 0 kts | 339° |
| 2026-05-04 14:03 | 50.04700 | 8.56158 | 366 ft | 2 kts | 338° |
| 2026-05-04 14:03 | 50.04686 | 8.56172 | 368 ft | 2 kts | 344° |
| 2026-05-04 14:03 | 50.04669 | 8.56166 | 363 ft | 0 kts | 275° |
| 2026-05-04 14:03 | 50.04669 | 8.56177 | 363 ft | 3 kts | 279° |
| 2026-05-04 14:04 | 50.04653 | 8.56255 | 365 ft | 5 kts | 292° |
| 2026-05-04 14:04 | 50.04640 | 8.56302 | 365 ft | 4 kts | 267° |
| 2026-05-04 14:04 | 50.04644 | 8.56345 | 364 ft | 0 kts | 251° |
| 2026-05-04 14:10 | 50.04632 | 8.56287 | 365 ft | 7 kts | 251° |
| 2026-05-04 14:10 | 50.04609 | 8.56191 | 366 ft | 11 kts | 248° |
| 2026-05-04 14:10 | 50.04577 | 8.56064 | 366 ft | 14 kts | 248° |
| 2026-05-04 14:10 | 50.04512 | 8.55956 | 367 ft | 14 kts | 206° |
| 2026-05-04 14:11 | 50.04414 | 8.55916 | 362 ft | 15 kts | 186° |
| 2026-05-04 14:11 | 50.04228 | 8.55889 | 367 ft | 14 kts | 239° |
| 2026-05-04 14:11 | 50.04192 | 8.55741 | 364 ft | 15 kts | 249° |
| 2026-05-04 14:12 | 50.04153 | 8.55582 | 365 ft | 16 kts | 249° |
| 2026-05-04 14:12 | 50.04113 | 8.55416 | 366 ft | 17 kts | 250° |
| 2026-05-04 14:12 | 50.04027 | 8.55060 | 363 ft | 18 kts | 249° |
| 2026-05-04 14:13 | 50.03983 | 8.54872 | 366 ft | 19 kts | 250° |
| 2026-05-04 14:13 | 50.03937 | 8.54677 | 368 ft | 19 kts | 250° |
| 2026-05-04 14:13 | 50.03889 | 8.54476 | 364 ft | 20 kts | 250° |
| 2026-05-04 14:13 | 50.03823 | 8.54287 | 366 ft | 20 kts | 235° |
| 2026-05-04 14:14 | 50.03768 | 8.54085 | 363 ft | 21 kts | 251° |
| 2026-05-04 14:14 | 50.03665 | 8.53663 | 364 ft | 21 kts | 249° |
| 2026-05-04 14:14 | 50.03611 | 8.53448 | 366 ft | 21 kts | 249° |
| 2026-05-04 14:15 | 50.03506 | 8.53007 | 365 ft | 22 kts | 250° |
| 2026-05-04 14:15 | 50.03379 | 8.52616 | 369 ft | 17 kts | 213° |
| 2026-05-04 14:16 | 50.02882 | 8.52600 | 366 ft | 101 kts | 180° |
| 2026-05-04 14:16 | 50.01903 | 8.52607 | 416 ft | 172 kts | 181° |
| 2026-05-04 14:17 | 49.99443 | 8.52654 | 2288 ft | 185 kts | 180° |
| 2026-05-04 14:17 | 49.98117 | 8.52706 | 3167 ft | 198 kts | 181° |
| 2026-05-04 14:17 | 49.95022 | 8.52947 | 3974 ft | 255 kts | 179° |
| 2026-05-04 14:18 | 49.93169 | 8.53096 | 4008 ft | 271 kts | 180° |
| 2026-05-04 14:19 | 49.86585 | 8.53137 | 4016 ft | 232 kts | 197° |
| 2026-05-04 14:19 | 49.85053 | 8.52273 | 4008 ft | 241 kts | 204° |
| 2026-05-04 14:19 | 49.83466 | 8.51306 | 4008 ft | 249 kts | 203° |
| 2026-05-04 14:19 | 49.81835 | 8.50344 | 3996 ft | 254 kts | 202° |
| 2026-05-04 14:20 | 49.80134 | 8.49376 | 4193 ft | 268 kts | 202° |
| 2026-05-04 14:20 | 49.78390 | 8.48379 | 5040 ft | 265 kts | 202° |
| 2026-05-04 14:20 | 49.76865 | 8.46881 | 5942 ft | 261 kts | 225° |
| 2026-05-04 14:21 | 49.75816 | 8.41520 | 7474 ft | 277 kts | 277° |
| 2026-05-04 14:21 | 49.76295 | 8.38612 | 8176 ft | 281 kts | 283° |
| 2026-05-04 14:21 | 49.76840 | 8.35698 | 8939 ft | 283 kts | 282° |
| 2026-05-04 14:21 | 49.77367 | 8.32786 | 9680 ft | 286 kts | 281° |
| 2026-05-04 14:22 | 49.77877 | 8.29789 | 10330 ft | 293 kts | 281° |
| 2026-05-04 14:22 | 49.78395 | 8.26584 | 10545 ft | 314 kts | 280° |
| 2026-05-04 14:22 | 49.78921 | 8.23240 | 10764 ft | 333 kts | 280° |
| 2026-05-04 14:22 | 49.79477 | 8.19725 | 11306 ft | 339 kts | 281° |
| 2026-05-04 14:23 | 49.80612 | 8.12580 | 12564 ft | 345 kts | 281° |
| 2026-05-04 14:23 | 49.81188 | 8.08943 | 13183 ft | 349 kts | 281° |
| 2026-05-04 14:23 | 49.81767 | 8.05281 | 13900 ft | 352 kts | 281° |
| 2026-05-04 14:24 | 49.82350 | 8.01583 | 14526 ft | 356 kts | 281° |
| 2026-05-04 14:24 | 49.82939 | 7.97847 | 15164 ft | 358 kts | 281° |
| 2026-05-04 14:24 | 49.83528 | 7.94097 | 15806 ft | 361 kts | 281° |
| 2026-05-04 14:24 | 49.84121 | 7.90301 | 16434 ft | 364 kts | 280° |
| 2026-05-04 14:25 | 49.84717 | 7.86478 | 17009 ft | 366 kts | 280° |
| 2026-05-04 14:25 | 49.85920 | 7.78733 | 18137 ft | 372 kts | 280° |
| 2026-05-04 14:25 | 49.86530 | 7.74823 | 18660 ft | 374 kts | 280° |
| 2026-05-04 14:26 | 49.87149 | 7.70891 | 19166 ft | 376 kts | 280° |
| 2026-05-04 14:26 | 49.87768 | 7.66936 | 19680 ft | 378 kts | 280° |
| 2026-05-04 14:26 | 49.88382 | 7.62948 | 20278 ft | 382 kts | 279° |
| 2026-05-04 14:26 | 49.88996 | 7.58926 | 20947 ft | 385 kts | 279° |
| 2026-05-04 14:27 | 49.89614 | 7.54880 | 21583 ft | 388 kts | 279° |
| 2026-05-04 14:27 | 49.90239 | 7.50788 | 22195 ft | 392 kts | 279° |
| 2026-05-04 14:27 | 49.90871 | 7.46656 | 22842 ft | 395 kts | 279° |
| 2026-05-04 14:27 | 49.91508 | 7.42488 | 23477 ft | 399 kts | 279° |
| 2026-05-04 14:28 | 49.92148 | 7.38292 | 24022 ft | 402 kts | 279° |
| 2026-05-04 14:28 | 49.92793 | 7.34054 | 24604 ft | 404 kts | 279° |
| 2026-05-04 14:28 | 49.93439 | 7.29799 | 25150 ft | 406 kts | 279° |
| 2026-05-04 14:28 | 49.94086 | 7.25517 | 25645 ft | 409 kts | 279° |
| 2026-05-04 14:29 | 49.95389 | 7.16867 | 26539 ft | 414 kts | 279° |
| 2026-05-04 14:29 | 49.96701 | 7.08114 | 27426 ft | 419 kts | 279° |
| 2026-05-04 14:30 | 49.97360 | 7.03689 | 27862 ft | 421 kts | 279° |
| 2026-05-04 14:30 | 49.98022 | 6.99241 | 28277 ft | 424 kts | 278° |
| 2026-05-04 14:30 | 49.99107 | 6.90235 | 29078 ft | 424 kts | 271° |
| 2026-05-04 14:31 | 49.99206 | 6.85656 | 29494 ft | 423 kts | 265° |
| 2026-05-04 14:31 | 49.98908 | 6.76479 | 30001 ft | 427 kts | 263° |
| 2026-05-04 14:32 | 49.98681 | 6.68833 | 30020 ft | 427 kts | 263° |
| 2026-05-04 14:32 | 49.98542 | 6.64196 | 30341 ft | 429 kts | 263° |
| 2026-05-04 14:32 | 49.98401 | 6.59565 | 30768 ft | 430 kts | 263° |
| 2026-05-04 14:32 | 49.98255 | 6.54908 | 31134 ft | 432 kts | 263° |
| 2026-05-04 14:33 | 49.98108 | 6.50234 | 31495 ft | 435 kts | 263° |
| 2026-05-04 14:33 | 49.97909 | 6.43994 | 31940 ft | 438 kts | 263° |
| 2026-05-04 14:33 | 49.97805 | 6.40799 | 32184 ft | 439 kts | 263° |
| 2026-05-04 14:33 | 49.97598 | 6.34510 | 32668 ft | 442 kts | 263° |
| 2026-05-04 14:34 | 49.97492 | 6.31279 | 32884 ft | 443 kts | 263° |
| 2026-05-04 14:34 | 49.97332 | 6.26493 | 33162 ft | 446 kts | 263° |
| 2026-05-04 14:34 | 49.97171 | 6.21674 | 33412 ft | 447 kts | 263° |
| 2026-05-04 14:34 | 49.97006 | 6.16846 | 33685 ft | 448 kts | 263° |
| 2026-05-04 14:35 | 49.96835 | 6.12022 | 33953 ft | 448 kts | 262° |
| 2026-05-04 14:35 | 49.96611 | 6.02396 | 34001 ft | 450 kts | 270° |
| 2026-05-04 14:35 | 49.97173 | 5.97570 | 33998 ft | 459 kts | 281° |
| 2026-05-04 14:36 | 49.98374 | 5.92944 | 33996 ft | 467 kts | 292° |
| 2026-05-04 14:36 | 50.00157 | 5.88748 | 33991 ft | 476 kts | 304° |
| 2026-05-04 14:36 | 50.02502 | 5.85071 | 33995 ft | 484 kts | 316° |
| 2026-05-04 14:37 | 50.08057 | 5.79041 | 33991 ft | 486 kts | 319° |
| 2026-05-04 14:37 | 50.13256 | 5.72378 | 33989 ft | 482 kts | 313° |
| 2026-05-04 14:38 | 50.18121 | 5.65230 | 33987 ft | 480 kts | 311° |
| 2026-05-04 14:38 | 50.22907 | 5.57964 | 33987 ft | 480 kts | 310° |
| 2026-05-04 14:39 | 50.27692 | 5.50682 | 33985 ft | 480 kts | 310° |
| 2026-05-04 14:39 | 50.32478 | 5.43396 | 33986 ft | 480 kts | 310° |
| 2026-05-04 14:40 | 50.39644 | 5.32454 | 33983 ft | 480 kts | 310° |
| 2026-05-04 14:40 | 50.44417 | 5.25136 | 33983 ft | 479 kts | 310° |
| 2026-05-04 14:41 | 50.49180 | 5.17812 | 33984 ft | 479 kts | 310° |
| 2026-05-04 14:42 | 50.58696 | 5.03116 | 33975 ft | 480 kts | 310° |
| 2026-05-04 14:42 | 50.63452 | 4.95739 | 33974 ft | 480 kts | 310° |
| 2026-05-04 14:43 | 50.68215 | 4.88333 | 33967 ft | 481 kts | 310° |
| 2026-05-04 14:43 | 50.72979 | 4.80910 | 33970 ft | 482 kts | 310° |
| 2026-05-04 14:44 | 50.77739 | 4.73470 | 33970 ft | 482 kts | 310° |
| 2026-05-04 14:44 | 50.82505 | 4.65998 | 33971 ft | 483 kts | 310° |
| 2026-05-04 14:45 | 50.87270 | 4.58505 | 33974 ft | 483 kts | 310° |
| 2026-05-04 14:45 | 50.91529 | 4.50414 | 33973 ft | 474 kts | 298° |
| 2026-05-04 14:46 | 50.94920 | 4.41580 | 33975 ft | 472 kts | 296° |
| 2026-05-04 14:46 | 50.98358 | 4.32640 | 33973 ft | 472 kts | 296° |
| 2026-05-04 14:47 | 51.01748 | 4.23785 | 33976 ft | 472 kts | 296° |
| 2026-05-04 14:47 | 51.05142 | 4.14870 | 33982 ft | 471 kts | 296° |
| 2026-05-04 14:48 | 51.08524 | 4.05949 | 33977 ft | 471 kts | 296° |
| 2026-05-04 14:48 | 51.11903 | 3.97007 | 33969 ft | 471 kts | 296° |
| 2026-05-04 14:49 | 51.15276 | 3.88050 | 33970 ft | 471 kts | 296° |
| 2026-05-04 14:49 | 51.18629 | 3.79114 | 33970 ft | 472 kts | 295° |
| 2026-05-04 14:50 | 51.21923 | 3.70082 | 33966 ft | 469 kts | 291° |
| 2026-05-04 14:50 | 51.24253 | 3.60492 | 33974 ft | 460 kts | 280° |
| 2026-05-04 14:51 | 51.25614 | 3.50568 | 33973 ft | 458 kts | 277° |
| 2026-05-04 14:51 | 51.26940 | 3.40615 | 33977 ft | 458 kts | 277° |
| 2026-05-04 14:52 | 51.28240 | 3.30659 | 33986 ft | 458 kts | 276° |
| 2026-05-04 14:52 | 51.29516 | 3.20692 | 33988 ft | 458 kts | 276° |
| 2026-05-04 14:53 | 51.30782 | 3.10731 | 33988 ft | 458 kts | 276° |
| 2026-05-04 14:53 | 51.32042 | 3.00753 | 33991 ft | 458 kts | 276° |
| 2026-05-04 14:54 | 51.33293 | 2.90775 | 33993 ft | 458 kts | 276° |
| 2026-05-04 14:54 | 51.34537 | 2.80783 | 33996 ft | 458 kts | 276° |
| 2026-05-04 14:55 | 51.35773 | 2.70792 | 33994 ft | 458 kts | 276° |
| 2026-05-04 14:55 | 51.37003 | 2.60819 | 33645 ft | 455 kts | 276° |
| 2026-05-04 14:56 | 51.37611 | 2.55842 | 32706 ft | 458 kts | 277° |
| 2026-05-04 14:56 | 51.38225 | 2.50787 | 31347 ft | 467 kts | 277° |
| 2026-05-04 14:56 | 51.38844 | 2.45659 | 29687 ft | 475 kts | 277° |
| 2026-05-04 14:56 | 51.39475 | 2.40435 | 28090 ft | 478 kts | 278° |
| 2026-05-04 14:57 | 51.40105 | 2.35239 | 27269 ft | 468 kts | 278° |
| 2026-05-04 14:57 | 51.40716 | 2.30198 | 26610 ft | 458 kts | 278° |
| 2026-05-04 14:57 | 51.41314 | 2.25228 | 25998 ft | 450 kts | 278° |
| 2026-05-04 14:57 | 51.41887 | 2.20444 | 25670 ft | 435 kts | 278° |
| 2026-05-04 14:58 | 51.42446 | 2.15763 | 25421 ft | 421 kts | 278° |
| 2026-05-04 14:58 | 51.42989 | 2.11187 | 25097 ft | 418 kts | 278° |
| 2026-05-04 14:58 | 51.43534 | 2.06543 | 24507 ft | 417 kts | 278° |
| 2026-05-04 14:58 | 51.44061 | 2.02050 | 23922 ft | 414 kts | 278° |
| 2026-05-04 14:59 | 51.44593 | 1.97530 | 23240 ft | 410 kts | 278° |
| 2026-05-04 14:59 | 51.45142 | 1.93084 | 22610 ft | 403 kts | 279° |
| 2026-05-04 14:59 | 51.46230 | 1.84398 | 21357 ft | 391 kts | 279° |
| 2026-05-04 15:00 | 51.46729 | 1.80159 | 20746 ft | 385 kts | 278° |
| 2026-05-04 15:00 | 51.47209 | 1.75971 | 20139 ft | 379 kts | 278° |
| 2026-05-04 15:00 | 51.47680 | 1.71837 | 19538 ft | 374 kts | 278° |
| 2026-05-04 15:01 | 51.48486 | 1.63561 | 17688 ft | 379 kts | 270° |
| 2026-05-04 15:01 | 51.48292 | 1.59388 | 17056 ft | 374 kts | 258° |
| 2026-05-04 15:01 | 51.47577 | 1.55373 | 16703 ft | 374 kts | 248° |
| 2026-05-04 15:01 | 51.46652 | 1.51469 | 16134 ft | 375 kts | 248° |
| 2026-05-04 15:02 | 51.45741 | 1.47569 | 15499 ft | 371 kts | 249° |
| 2026-05-04 15:02 | 51.44854 | 1.43735 | 14925 ft | 362 kts | 249° |
| 2026-05-04 15:02 | 51.43904 | 1.40044 | 14247 ft | 356 kts | 242° |
| 2026-05-04 15:02 | 51.42510 | 1.36819 | 13741 ft | 348 kts | 229° |
| 2026-05-04 15:03 | 51.40715 | 1.34221 | 13541 ft | 355 kts | 217° |
| 2026-05-04 15:03 | 51.38690 | 1.31882 | 13446 ft | 360 kts | 216° |
| 2026-05-04 15:03 | 51.36675 | 1.29524 | 13342 ft | 358 kts | 216° |
| 2026-05-04 15:03 | 51.34671 | 1.27158 | 13168 ft | 358 kts | 217° |
| 2026-05-04 15:04 | 51.32677 | 1.24799 | 12975 ft | 355 kts | 217° |
| 2026-05-04 15:04 | 51.30694 | 1.22452 | 12788 ft | 355 kts | 217° |
| 2026-05-04 15:04 | 51.28706 | 1.20101 | 12597 ft | 355 kts | 217° |
| 2026-05-04 15:04 | 51.26724 | 1.17761 | 12421 ft | 354 kts | 217° |
| 2026-05-04 15:05 | 51.24745 | 1.15430 | 12227 ft | 353 kts | 217° |
| 2026-05-04 15:05 | 51.22772 | 1.13109 | 12062 ft | 352 kts | 217° |
| 2026-05-04 15:05 | 51.20804 | 1.10796 | 11849 ft | 351 kts | 217° |
| 2026-05-04 15:05 | 51.18840 | 1.08492 | 11685 ft | 350 kts | 216° |
| 2026-05-04 15:06 | 51.16878 | 1.06191 | 11490 ft | 349 kts | 216° |
| 2026-05-04 15:06 | 51.14924 | 1.03903 | 11325 ft | 348 kts | 216° |
| 2026-05-04 15:06 | 51.12975 | 1.01622 | 11135 ft | 348 kts | 216° |
| 2026-05-04 15:07 | 51.09080 | 0.97073 | 10783 ft | 346 kts | 216° |
| 2026-05-04 15:07 | 51.07162 | 0.94792 | 10648 ft | 340 kts | 220° |
| 2026-05-04 15:07 | 51.05574 | 0.92128 | 10527 ft | 326 kts | 233° |
| 2026-05-04 15:07 | 51.04456 | 0.89116 | 10380 ft | 308 kts | 245° |
| 2026-05-04 15:08 | 51.03601 | 0.86101 | 10115 ft | 292 kts | 245° |
| 2026-05-04 15:08 | 51.02759 | 0.83193 | 9638 ft | 286 kts | 245° |
| 2026-05-04 15:08 | 51.01931 | 0.80390 | 9458 ft | 281 kts | 245° |
| 2026-05-04 15:08 | 51.01085 | 0.77555 | 9374 ft | 284 kts | 245° |
| 2026-05-04 15:09 | 51.00238 | 0.74732 | 9298 ft | 283 kts | 245° |
| 2026-05-04 15:09 | 50.99403 | 0.71949 | 9218 ft | 283 kts | 244° |
| 2026-05-04 15:09 | 50.98545 | 0.69095 | 9137 ft | 283 kts | 244° |
| 2026-05-04 15:10 | 50.96860 | 0.63498 | 8903 ft | 282 kts | 244° |
| 2026-05-04 15:10 | 50.96014 | 0.60691 | 8742 ft | 282 kts | 244° |
| 2026-05-04 15:10 | 50.94313 | 0.55062 | 8436 ft | 281 kts | 244° |
| 2026-05-04 15:11 | 50.93482 | 0.52314 | 8280 ft | 280 kts | 244° |
| 2026-05-04 15:11 | 50.92629 | 0.49500 | 8128 ft | 280 kts | 244° |
| 2026-05-04 15:11 | 50.91810 | 0.46747 | 7980 ft | 279 kts | 248° |
| 2026-05-04 15:11 | 50.91435 | 0.43757 | 7847 ft | 279 kts | 270° |
| 2026-05-04 15:12 | 50.91745 | 0.41036 | 7721 ft | 278 kts | 287° |
| 2026-05-04 15:12 | 50.92347 | 0.38033 | 7566 ft | 278 kts | 288° |
| 2026-05-04 15:12 | 50.92920 | 0.35117 | 7416 ft | 277 kts | 287° |
| 2026-05-04 15:12 | 50.93468 | 0.32227 | 7332 ft | 269 kts | 287° |
| 2026-05-04 15:13 | 50.93979 | 0.29459 | 7215 ft | 254 kts | 286° |
| 2026-05-04 15:13 | 50.94495 | 0.26860 | 6966 ft | 242 kts | 292° |
| 2026-05-04 15:13 | 50.95283 | 0.24531 | 6601 ft | 242 kts | 305° |
| 2026-05-04 15:13 | 50.96330 | 0.22440 | 6131 ft | 242 kts | 310° |
| 2026-05-04 15:14 | 50.97416 | 0.20415 | 5654 ft | 241 kts | 311° |
| 2026-05-04 15:14 | 50.98477 | 0.18377 | 5201 ft | 238 kts | 310° |
| 2026-05-04 15:14 | 50.99505 | 0.16317 | 4804 ft | 237 kts | 309° |
| 2026-05-04 15:14 | 51.00505 | 0.14248 | 4425 ft | 236 kts | 308° |
| 2026-05-04 15:15 | 51.01492 | 0.12158 | 4082 ft | 234 kts | 308° |
| 2026-05-04 15:15 | 51.02391 | 0.10070 | 3972 ft | 228 kts | 296° |
| 2026-05-04 15:15 | 51.02710 | 0.07575 | 4004 ft | 235 kts | 271° |
| 2026-05-04 15:16 | 51.02394 | 0.02412 | 3993 ft | 234 kts | 266° |
| 2026-05-04 15:16 | 51.02309 | -0.00178 | 3985 ft | 236 kts | 270° |
| 2026-05-04 15:16 | 51.02412 | -0.05320 | 3590 ft | 231 kts | 275° |
| 2026-05-04 15:17 | 51.02524 | -0.07896 | 3560 ft | 234 kts | 275° |
| 2026-05-04 15:17 | 51.02753 | -0.13027 | 3497 ft | 233 kts | 275° |
| 2026-05-04 15:17 | 51.02864 | -0.15602 | 3451 ft | 233 kts | 275° |
| 2026-05-04 15:18 | 51.02970 | -0.18169 | 3382 ft | 232 kts | 275° |
| 2026-05-04 15:18 | 51.03077 | -0.20731 | 3325 ft | 233 kts | 275° |
| 2026-05-04 15:18 | 51.03148 | -0.22425 | 3290 ft | 233 kts | 275° |
| 2026-05-04 15:19 | 51.03399 | -0.28413 | 3150 ft | 232 kts | 275° |
| 2026-05-04 15:19 | 51.03507 | -0.30975 | 3097 ft | 232 kts | 274° |
| 2026-05-04 15:19 | 51.03688 | -0.35222 | 3002 ft | 232 kts | 275° |
| 2026-05-04 15:20 | 51.03795 | -0.37774 | 2997 ft | 232 kts | 274° |
| 2026-05-04 15:20 | 51.03892 | -0.40322 | 2988 ft | 231 kts | 274° |
| 2026-05-04 15:20 | 51.03987 | -0.42876 | 2993 ft | 232 kts | 274° |
| 2026-05-04 15:20 | 51.04081 | -0.45366 | 2988 ft | 232 kts | 274° |
| 2026-05-04 15:21 | 51.04188 | -0.47921 | 2988 ft | 232 kts | 274° |
| 2026-05-04 15:21 | 51.04323 | -0.50470 | 2978 ft | 231 kts | 280° |
| 2026-05-04 15:21 | 51.06240 | -0.54245 | 2990 ft | 228 kts | 340° |
| 2026-05-04 15:22 | 51.07793 | -0.54517 | 2985 ft | 227 kts | 10° |
| 2026-05-04 15:22 | 51.09217 | -0.53495 | 2988 ft | 227 kts | 40° |
| 2026-05-04 15:22 | 51.10691 | -0.49140 | 2990 ft | 227 kts | 75° |
| 2026-05-04 15:23 | 51.11032 | -0.46776 | 2987 ft | 210 kts | 78° |
| 2026-05-04 15:23 | 51.11320 | -0.44602 | 2997 ft | 192 kts | 77° |
| 2026-05-04 15:23 | 51.11593 | -0.42623 | 2982 ft | 174 kts | 77° |
| 2026-05-04 15:23 | 51.11837 | -0.40810 | 2779 ft | 161 kts | 78° |
| 2026-05-04 15:24 | 51.12307 | -0.37370 | 2380 ft | 152 kts | 78° |
| 2026-05-04 15:24 | 51.12735 | -0.34229 | 1968 ft | 142 kts | 78° |
| 2026-05-04 15:25 | 51.12943 | -0.32698 | 1795 ft | 146 kts | 78° |
| 2026-05-04 15:25 | 51.13153 | -0.31162 | 1589 ft | 139 kts | 78° |
| 2026-05-04 15:25 | 51.13362 | -0.29613 | 1419 ft | 143 kts | 78° |
| 2026-05-04 15:26 | 51.13772 | -0.26563 | 979 ft | 137 kts | 77° |
| 2026-05-04 15:26 | 51.13970 | -0.25125 | 763 ft | 135 kts | 76° |
| 2026-05-04 15:26 | 51.14381 | -0.22176 | 407 ft | 136 kts | 78° |
| 2026-05-04 15:27 | 51.14583 | -0.20716 | 248 ft | 131 kts | 76° |
| 2026-05-04 15:27 | 51.14855 | -0.18756 | 217 ft | 37 kts | 75° |
| 2026-05-04 15:28 | 51.15033 | -0.18338 | 219 ft | 0 kts | 52° |
| 2026-05-04 15:28 | 51.15035 | -0.18334 | 219 ft | 2 kts | 52° |
| 2026-05-04 15:28 | 51.15075 | -0.18253 | 220 ft | 8 kts | 51° |
| 2026-05-04 15:29 | 51.15109 | -0.18185 | 217 ft | 8 kts | 52° |
| 2026-05-04 15:30 | 51.15149 | -0.17944 | 211 ft | 0 kts | 79° |
| 2026-05-04 15:30 | 51.15171 | -0.17782 | 216 ft | 12 kts | 77° |
| 2026-05-04 15:31 | 51.15221 | -0.17422 | 217 ft | 19 kts | 76° |
| 2026-05-04 15:31 | 51.15312 | -0.17357 | 217 ft | 17 kts | 347° |
| 2026-05-04 15:32 | 51.15718 | -0.17497 | 220 ft | 13 kts | 355° |
| 2026-05-04 15:32 | 51.15852 | -0.17524 | 216 ft | 1 kts | 346° |
| 2026-05-04 15:33 | 51.15858 | -0.17525 | 214 ft | 0 kts | 347° |